Time;durP1;ratioP1;P1;durP2;ratioP2;P2;SDS_P1;SDS_P2;PMS_P1;PMS_P2;Temp;Humidity;BMP_temperature;BMP_pressure;BME280_temperature;BME280_humidity;BME280_pressure;Samples;Min_cycle;Max_cycle;Signal;HPM_P1;HPM_P2
2023/03/07 00:01:57;;;;;;;15.45;9.43;;;4.90;99.90;;;;;;1884809;76;21104;-91
2023/03/07 00:04:48;;;;;;;15.25;9.23;;;4.90;99.90;;;;;;1906710;75;21106;-89
2023/03/07 00:07:43;;;;;;;16.10;9.88;;;4.80;99.90;;;;;;1905222;75;21164;-90
2023/03/07 00:10:34;;;;;;;16.12;10.23;;;4.90;99.90;;;;;;1898754;75;21184;-90
2023/03/07 00:13:27;;;;;;;15.68;10.15;;;4.90;99.90;;;;;;1907145;75;21090;-89
2023/03/07 00:16:21;;;;;;;15.80;9.33;;;5.00;99.90;;;;;;1850296;76;21117;-89
2023/03/07 00:19:12;;;;;;;14.78;9.63;;;5.00;99.90;;;;;;1872192;76;21121;-89
2023/03/07 00:22:04;;;;;;;14.47;9.80;;;4.90;99.90;;;;;;1864730;76;21117;-90
2023/03/07 00:24:55;;;;;;;15.15;9.68;;;4.90;99.90;;;;;;1862401;76;21100;-90
2023/03/07 00:27:47;;;;;;;15.83;10.38;;;4.90;99.90;;;;;;1860109;76;21085;-89
2023/03/07 00:30:38;;;;;;;18.30;10.15;;;4.80;99.90;;;;;;1879232;76;21109;-90
2023/03/07 00:33:30;;;;;;;18.37;10.58;;;4.80;99.90;;;;;;1868153;76;21104;-90
2023/03/07 00:36:22;;;;;;;14.85;9.75;;;4.80;99.90;;;;;;1867796;76;21136;-89
2023/03/07 00:39:21;;;;;;;20.55;9.85;;;4.80;99.90;;;;;;1858140;76;21347;-90
2023/03/07 00:42:12;;;;;;;17.55;10.72;;;4.70;99.90;;;;;;1876269;76;21556;-89
2023/03/07 00:45:04;;;;;;;15.35;10.38;;;4.70;99.90;;;;;;1849830;77;21120;-90
2023/03/07 00:47:59;;;;;;;17.67;11.03;;;4.50;99.90;;;;;;1849563;77;21509;-90
2023/03/07 00:50:51;;;;;;;16.62;10.80;;;4.50;99.90;;;;;;1841282;77;21161;-90
2023/03/07 00:53:43;;;;;;;18.12;10.50;;;4.40;99.90;;;;;;1869680;76;21093;-89
2023/03/07 00:56:35;;;;;;;18.42;11.22;;;4.30;99.90;;;;;;1850348;76;21161;-91
2023/03/07 00:59:26;;;;;;;18.10;11.48;;;4.30;99.90;;;;;;1878682;76;21109;-89
2023/03/07 01:02:18;;;;;;;17.23;10.88;;;4.30;99.90;;;;;;1861004;76;21143;-89
2023/03/07 01:05:10;;;;;;;20.57;12.00;;;4.30;99.90;;;;;;1859724;76;21113;-90
2023/03/07 01:08:02;;;;;;;17.07;10.80;;;4.20;99.90;;;;;;1879486;76;21152;-89
2023/03/07 01:10:55;;;;;;;16.57;10.30;;;4.20;99.90;;;;;;1867228;76;21363;-91
2023/03/07 01:13:46;;;;;;;18.15;11.18;;;4.20;99.90;;;;;;1862344;76;21232;-88
2023/03/07 01:16:39;;;;;;;18.48;11.63;;;4.20;99.90;;;;;;1892195;75;21205;-89
2023/03/07 01:19:31;;;;;;;17.80;11.40;;;4.20;99.90;;;;;;1893419;76;21054;-89
2023/03/07 01:22:28;;;;;;;19.07;11.33;;;4.20;99.90;;;;;;1877420;76;21150;-89
2023/03/07 01:25:20;;;;;;;17.20;11.67;;;4.20;99.90;;;;;;1899503;75;21062;-90
2023/03/07 01:28:14;;;;;;;18.27;10.80;;;4.20;99.90;;;;;;1911080;74;21086;-91
2023/03/07 01:31:05;;;;;;;18.50;10.80;;;4.30;99.90;;;;;;1910552;74;21051;-90
2023/03/07 01:33:58;;;;;;;18.10;10.08;;;4.20;99.90;;;;;;1908716;74;21146;-91
2023/03/07 01:36:49;;;;;;;16.60;10.35;;;4.20;99.90;;;;;;1875572;76;21167;-89
2023/03/07 01:39:41;;;;;;;17.23;10.53;;;4.10;99.90;;;;;;1899681;75;21067;-89
2023/03/07 01:42:34;;;;;;;16.82;10.28;;;4.10;99.90;;;;;;1908736;74;21162;-89
2023/03/07 01:46:03;;;;;;;20.15;10.98;;;4.00;99.90;;;;;;1910668;74;21074;-88
2023/03/07 01:48:58;;;;;;;18.67;10.88;;;4.00;99.90;;;;;;1910164;74;21106;-90
2023/03/07 01:51:54;;;;;;;15.58;10.63;;;4.00;99.90;;;;;;1933183;74;21159;-90
2023/03/07 01:54:50;;;;;;;18.60;11.05;;;4.00;99.90;;;;;;1912398;74;21109;-89
2023/03/07 01:57:46;;;;;;;18.07;10.75;;;3.90;99.90;;;;;;1873615;76;21710;-89
2023/03/07 02:00:40;;;;;;;17.32;9.68;;;3.90;99.90;;;;;;1920664;74;21160;-91
2023/03/07 02:03:34;;;;;;;15.18;10.18;;;3.90;99.90;;;;;;1899954;75;21128;-89
2023/03/07 02:06:29;;;;;;;18.90;10.82;;;3.80;99.90;;;;;;1878223;76;21196;-89
2023/03/07 02:09:24;;;;;;;19.75;10.48;;;3.80;99.90;;;;;;1878087;76;21101;-89
2023/03/07 02:12:16;;;;;;;19.67;10.32;;;3.80;99.90;;;;;;1899844;75;21102;-89
2023/03/07 02:15:10;;;;;;;16.80;10.13;;;3.70;99.90;;;;;;1911297;74;21101;-90
2023/03/07 02:18:04;;;;;;;13.70;9.45;;;3.70;99.90;;;;;;1904196;74;21062;-87
2023/03/07 02:20:59;;;;;;;18.45;10.80;;;3.60;99.90;;;;;;1823728;78;21059;-91
2023/03/07 02:23:55;;;;;;;16.55;9.68;;;3.60;99.90;;;;;;1884031;76;21132;-90
2023/03/07 02:26:49;;;;;;;16.60;10.82;;;3.50;99.90;;;;;;1884166;76;21102;-89
2023/03/07 02:29:44;;;;;;;19.05;10.98;;;3.50;99.90;;;;;;1895267;75;21114;-91
2023/03/07 02:32:35;;;;;;;17.73;10.58;;;3.50;99.90;;;;;;1895268;75;21168;-90
2023/03/07 02:35:28;;;;;;;19.05;11.38;;;3.50;99.90;;;;;;1894535;75;21117;-91
2023/03/07 02:41:02;;;;;;;21.00;10.60;;;3.40;99.90;;;;;;1976161;72;22176;-89
2023/03/07 02:43:56;;;;;;;15.28;9.88;;;3.40;99.90;;;;;;1908309;74;21219;-89
2023/03/07 02:46:47;;;;;;;16.17;10.53;;;3.40;99.90;;;;;;1928286;74;21101;-89
2023/03/07 02:49:39;;;;;;;17.87;9.28;;;3.40;99.90;;;;;;1905254;75;21067;-88
2023/03/07 02:52:31;;;;;;;16.97;9.58;;;3.30;99.90;;;;;;1904553;75;21137;-89
2023/03/07 02:55:22;;;;;;;14.73;9.38;;;3.30;99.90;;;;;;1904466;75;21114;-90
2023/03/07 02:58:15;;;;;;;14.50;8.70;;;3.20;99.90;;;;;;1927655;74;21605;-89
2023/03/07 03:01:07;;;;;;;15.65;9.50;;;3.30;99.90;;;;;;1905027;75;21105;-89
2023/03/07 03:04:03;;;;;;;16.80;10.45;;;3.20;99.90;;;;;;1905361;75;21172;-89
2023/03/07 03:06:59;;;;;;;16.32;10.48;;;3.20;99.90;;;;;;1905009;75;21098;-89
2023/03/07 03:09:53;;;;;;;17.98;10.35;;;3.10;99.90;;;;;;1884075;75;21154;-89
2023/03/07 03:12:46;;;;;;;17.32;10.15;;;3.00;99.90;;;;;;1905052;75;21090;-89
2023/03/07 03:15:37;;;;;;;18.10;10.48;;;3.00;99.90;;;;;;1898486;75;21136;-89
2023/03/07 03:18:30;;;;;;;16.17;10.08;;;2.90;99.90;;;;;;1905676;75;21099;-88
2023/03/07 03:21:21;;;;;;;18.10;11.05;;;2.80;99.90;;;;;;1904953;75;21095;-89
2023/03/07 03:24:14;;;;;;;16.32;10.13;;;2.70;99.90;;;;;;1905724;75;21150;-89
2023/03/07 03:27:07;;;;;;;16.73;9.98;;;2.60;99.90;;;;;;1905074;75;21187;-89
2023/03/07 03:29:59;;;;;;;16.32;10.32;;;2.60;99.90;;;;;;1904807;75;21063;-89
2023/03/07 03:32:52;;;;;;;18.98;10.35;;;2.60;99.90;;;;;;1905381;75;21067;-89
2023/03/07 03:35:44;;;;;;;16.05;9.10;;;2.70;99.90;;;;;;1904927;75;21160;-89
2023/03/07 03:38:40;;;;;;;17.20;9.55;;;2.70;99.90;;;;;;1905255;75;21118;-89
2023/03/07 03:41:32;;;;;;;14.98;9.43;;;2.80;99.90;;;;;;1899832;74;21072;-88
2023/03/07 03:44:23;;;;;;;17.15;9.88;;;2.80;99.90;;;;;;1904705;74;21493;-89
2023/03/07 03:47:15;;;;;;;16.75;9.80;;;2.90;99.90;;;;;;1923140;74;21088;-89
2023/03/07 03:50:09;;;;;;;16.80;9.35;;;2.90;99.90;;;;;;1901191;74;21055;-89
2023/03/07 03:53:02;;;;;;;15.63;8.43;;;2.90;99.90;;;;;;1903882;74;21110;-90
2023/03/07 03:55:55;;;;;;;16.67;8.95;;;3.00;99.90;;;;;;1889861;75;21103;-89
2023/03/07 03:58:50;;;;;;;14.68;9.13;;;3.00;99.90;;;;;;1912902;74;21052;-91
2023/03/07 04:01:42;;;;;;;12.63;8.35;;;2.90;99.90;;;;;;1901387;75;21091;-90
2023/03/07 04:04:35;;;;;;;14.13;8.83;;;3.00;99.90;;;;;;1894748;75;21153;-89
2023/03/07 04:07:28;;;;;;;13.32;8.45;;;3.00;99.90;;;;;;1889411;76;21122;-89
2023/03/07 04:10:20;;;;;;;14.50;8.85;;;2.90;99.90;;;;;;1895153;75;21153;-89
2023/03/07 04:13:11;;;;;;;15.90;9.30;;;2.90;99.90;;;;;;1894643;75;21060;-89
2023/03/07 04:16:02;;;;;;;16.12;9.13;;;2.80;99.90;;;;;;1894303;75;21067;-88
2023/03/07 04:18:55;;;;;;;16.42;8.93;;;2.80;99.90;;;;;;1890073;76;21102;-91
2023/03/07 04:21:46;;;;;;;17.07;9.80;;;2.80;99.90;;;;;;1889947;76;21063;-89
2023/03/07 04:24:39;;;;;;;15.48;9.68;;;2.80;99.90;;;;;;1899321;75;21126;-89
2023/03/07 04:27:33;;;;;;;16.45;9.75;;;2.60;99.90;;;;;;1899167;75;21598;-89
2023/03/07 04:30:25;;;;;;;13.70;9.00;;;2.60;99.90;;;;;;1909421;74;21095;-89
2023/03/07 04:33:26;;;;;;;18.60;10.25;;;2.60;99.90;;;;;;1905389;74;21115;-90
2023/03/07 04:36:25;;;;;;;16.65;9.18;;;2.50;99.90;;;;;;1889330;76;21071;-90
2023/03/07 04:39:17;;;;;;;16.40;9.95;;;2.60;99.90;;;;;;1911696;74;21204;-89
2023/03/07 04:42:09;;;;;;;20.75;10.28;;;2.60;99.90;;;;;;1911623;74;21423;-88
2023/03/07 04:45:07;;;;;;;17.48;10.23;;;2.60;99.90;;;;;;1890082;75;21193;-89
2023/03/07 04:48:01;;;;;;;18.90;10.43;;;2.70;99.90;;;;;;1889328;76;21118;-89
2023/03/07 04:50:54;;;;;;;17.73;10.72;;;2.70;99.90;;;;;;1901995;74;21103;-89
2023/03/07 04:53:47;;;;;;;17.92;10.20;;;2.70;99.90;;;;;;1895961;74;21209;-89
2023/03/07 04:56:39;;;;;;;17.77;10.58;;;2.70;99.90;;;;;;1915735;74;21163;-88
2023/03/07 04:59:31;;;;;;;16.93;10.08;;;2.60;99.90;;;;;;1839600;78;21141;-89
2023/03/07 05:02:23;;;;;;;18.77;11.08;;;2.60;99.90;;;;;;1889702;75;21186;-89
2023/03/07 05:05:15;;;;;;;18.85;11.22;;;2.50;99.90;;;;;;1911455;74;21114;-89
2023/03/07 05:08:09;;;;;;;17.15;10.55;;;2.50;99.90;;;;;;1891390;75;21103;-89
2023/03/07 05:11:00;;;;;;;20.23;10.00;;;2.50;99.90;;;;;;1904208;75;21115;-89
2023/03/07 05:14:05;;;;;;;20.35;10.80;;;2.50;99.90;;;;;;1897898;75;21145;-89
2023/03/07 05:17:00;;;;;;;20.25;11.50;;;2.40;99.90;;;;;;1885315;74;21593;-90
2023/03/07 05:19:54;;;;;;;18.98;11.45;;;2.50;99.90;;;;;;1917847;74;21090;-89
2023/03/07 05:22:46;;;;;;;20.57;11.40;;;2.40;99.90;;;;;;1896794;74;21173;-89
2023/03/07 05:25:38;;;;;;;18.70;11.73;;;2.40;99.90;;;;;;1901240;74;21605;-89
2023/03/07 05:28:32;;;;;;;18.15;11.05;;;2.50;99.90;;;;;;1897046;75;21067;-89
2023/03/07 05:31:25;;;;;;;21.70;11.63;;;2.50;99.90;;;;;;1894765;75;21102;-90
2023/03/07 05:34:17;;;;;;;19.48;11.20;;;2.50;99.90;;;;;;1897974;74;21222;-89
2023/03/07 05:37:09;;;;;;;20.88;11.03;;;2.40;99.90;;;;;;1898361;74;21107;-89
2023/03/07 05:40:01;;;;;;;18.17;10.98;;;2.40;99.90;;;;;;1889276;76;21078;-89
2023/03/07 05:42:52;;;;;;;17.50;10.72;;;2.50;99.90;;;;;;1889891;75;21129;-89
2023/03/07 05:45:44;;;;;;;16.93;10.68;;;2.50;99.90;;;;;;1900969;75;21148;-91
2023/03/07 05:48:36;;;;;;;20.50;11.63;;;2.40;99.90;;;;;;1904319;75;21051;-90
2023/03/07 05:51:28;;;;;;;21.52;13.28;;;2.40;99.90;;;;;;1850329;77;21103;-90
2023/03/07 05:54:23;;;;;;;19.73;11.25;;;2.40;99.90;;;;;;1889538;75;21070;-89
2023/03/07 05:57:14;;;;;;;15.98;10.32;;;2.40;99.90;;;;;;1879783;74;21165;-90
2023/03/07 06:00:13;;;;;;;19.15;11.15;;;2.40;99.90;;;;;;1866693;76;21111;-88
2023/03/07 06:03:06;;;;;;;19.25;11.05;;;2.50;99.90;;;;;;1892044;75;21131;-90
2023/03/07 06:06:00;;;;;;;18.25;11.25;;;2.50;99.90;;;;;;1907096;74;21130;-89
2023/03/07 06:08:51;;;;;;;20.08;11.57;;;2.50;99.90;;;;;;1867969;76;21067;-89
2023/03/07 06:14:31;;;;;;;17.80;10.68;;;2.40;99.90;;;;;;1950059;72;22174;-89
2023/03/07 06:17:23;;;;;;;21.07;11.05;;;2.40;99.90;;;;;;1905549;75;21095;-92
2023/03/07 06:20:19;;;;;;;18.90;11.08;;;2.40;99.90;;;;;;1917702;75;21075;-90
2023/03/07 06:23:10;;;;;;;17.15;10.85;;;2.30;99.90;;;;;;1905009;75;21151;-90
2023/03/07 06:26:06;;;;;;;16.02;10.45;;;2.30;99.90;;;;;;1866580;77;21245;-90
2023/03/07 06:28:57;;;;;;;17.60;11.20;;;2.30;99.90;;;;;;1881097;76;21086;-90
2023/03/07 06:31:49;;;;;;;19.35;10.93;;;2.30;99.90;;;;;;1882834;76;21101;-91
2023/03/07 06:34:41;;;;;;;19.20;11.45;;;2.40;99.90;;;;;;1904672;75;21106;-91
2023/03/07 06:37:33;;;;;;;18.57;11.75;;;2.40;99.90;;;;;;1916610;75;21130;-89
2023/03/07 06:40:25;;;;;;;21.48;12.35;;;2.40;99.90;;;;;;1929265;74;21111;-90
2023/03/07 06:43:16;;;;;;;19.30;11.38;;;2.40;99.90;;;;;;1919767;74;21164;-90
2023/03/07 06:46:08;;;;;;;18.67;10.78;;;2.30;99.90;;;;;;1917311;75;21098;-89
2023/03/07 06:49:02;;;;;;;18.92;11.10;;;2.30;99.90;;;;;;1905219;75;21063;-91
2023/03/07 06:51:54;;;;;;;18.90;10.85;;;2.30;99.90;;;;;;1939554;73;21518;-90
2023/03/07 06:54:46;;;;;;;19.65;11.40;;;2.30;99.90;;;;;;1849364;77;21126;-89
2023/03/07 06:57:37;;;;;;;20.40;11.78;;;2.30;99.90;;;;;;1856990;77;21151;-90
2023/03/07 07:00:29;;;;;;;21.23;11.48;;;2.40;99.90;;;;;;1867515;76;21100;-90
2023/03/07 07:03:24;;;;;;;19.25;11.45;;;2.40;99.90;;;;;;1868815;77;21146;-90
2023/03/07 07:06:16;;;;;;;18.92;11.18;;;2.40;99.90;;;;;;1831778;78;21184;-90
2023/03/07 07:09:07;;;;;;;19.20;11.45;;;2.50;99.90;;;;;;1917293;75;21050;-90
2023/03/07 07:12:00;;;;;;;19.77;11.70;;;2.50;99.90;;;;;;1917744;75;21094;-90
2023/03/07 07:14:56;;;;;;;21.20;12.50;;;2.50;99.90;;;;;;1912932;74;21148;-89
2023/03/07 07:17:48;;;;;;;22.42;11.75;;;2.60;99.90;;;;;;1913796;74;21051;-90
2023/03/07 07:20:40;;;;;;;18.35;10.95;;;2.60;99.90;;;;;;1913830;74;21504;-90
2023/03/07 07:23:33;;;;;;;18.05;11.63;;;2.70;99.90;;;;;;1890219;75;21250;-90
2023/03/07 07:26:26;;;;;;;22.07;11.65;;;2.70;99.90;;;;;;1897721;74;21107;-91
2023/03/07 07:29:19;;;;;;;22.95;12.20;;;2.70;99.90;;;;;;1918920;74;21161;-91
2023/03/07 07:32:11;;;;;;;21.57;11.53;;;2.60;99.90;;;;;;1906033;75;21232;-90
2023/03/07 07:35:04;;;;;;;21.00;12.60;;;2.60;99.90;;;;;;1916105;75;21094;-91
2023/03/07 07:37:56;;;;;;;19.30;11.60;;;2.60;99.90;;;;;;1908325;75;21311;-90
2023/03/07 07:40:49;;;;;;;19.95;11.97;;;2.70;99.90;;;;;;1839259;78;21107;-91
2023/03/07 07:43:41;;;;;;;21.25;12.58;;;2.70;99.90;;;;;;1838460;78;21144;-91
2023/03/07 07:46:35;;;;;;;22.73;12.60;;;2.80;99.90;;;;;;1804897;78;21183;-89
2023/03/07 07:49:29;;;;;;;22.58;12.60;;;2.90;99.90;;;;;;1804826;79;21180;-91
2023/03/07 07:52:21;;;;;;;27.02;12.45;;;2.90;99.90;;;;;;1838458;78;21118;-91
2023/03/07 07:55:13;;;;;;;26.68;13.48;;;3.00;99.90;;;;;;1830711;78;21063;-91
2023/03/07 07:58:16;;;;;;;22.22;12.70;;;3.10;99.90;;;;;;1895481;75;21138;-90
2023/03/07 08:01:16;;;;;;;21.82;12.82;;;3.20;99.90;;;;;;1919013;74;21054;-90
2023/03/07 08:04:08;;;;;;;19.55;11.55;;;3.30;99.90;;;;;;1902642;74;21141;-90
2023/03/07 08:07:01;;;;;;;17.80;11.33;;;3.40;99.90;;;;;;1909220;75;21111;-89
2023/03/07 08:09:54;;;;;;;19.60;11.63;;;3.40;99.90;;;;;;1891801;74;21048;-90
2023/03/07 08:12:47;;;;;;;20.05;10.90;;;3.50;99.90;;;;;;1922711;74;21134;-89
2023/03/07 08:15:38;;;;;;;17.87;10.45;;;3.50;99.90;;;;;;1901088;74;21135;-90
2023/03/07 08:18:30;;;;;;;20.20;11.40;;;3.60;99.90;;;;;;1898897;74;21110;-91
2023/03/07 08:21:22;;;;;;;19.07;11.40;;;3.70;99.90;;;;;;1927254;73;21111;-91
2023/03/07 08:24:15;;;;;;;19.32;11.33;;;3.80;99.90;;;;;;1921503;74;21149;-90
2023/03/07 08:27:08;;;;;;;21.93;12.37;;;3.90;99.90;;;;;;1888285;74;21156;-91
2023/03/07 08:30:01;;;;;;;20.43;11.53;;;4.00;99.90;;;;;;1903023;74;21098;-91
2023/03/07 08:32:57;;;;;;;18.85;11.45;;;4.10;99.90;;;;;;1922906;73;21055;-91
2023/03/07 08:35:49;;;;;;;17.73;11.38;;;4.10;99.90;;;;;;1919632;74;21090;-89
2023/03/07 08:38:41;;;;;;;22.02;13.53;;;4.20;99.90;;;;;;1919791;74;21047;-89
2023/03/07 08:41:33;;;;;;;26.30;12.70;;;4.30;99.90;;;;;;1907907;73;21059;-90
2023/03/07 08:44:26;;;;;;;19.50;10.60;;;4.50;99.90;;;;;;1901619;74;21099;-90
2023/03/07 08:47:17;;;;;;;18.57;10.63;;;4.50;99.90;;;;;;1897093;73;21088;-90
2023/03/07 08:50:11;;;;;;;17.50;11.03;;;4.60;99.90;;;;;;1892945;74;21102;-90
2023/03/07 08:53:03;;;;;;;20.52;11.53;;;4.70;99.90;;;;;;1915087;74;21156;-90
2023/03/07 08:56:00;;;;;;;19.30;10.80;;;4.90;99.90;;;;;;1875386;76;21225;-90
2023/03/07 08:58:55;;;;;;;17.30;10.55;;;5.00;99.90;;;;;;1879345;75;21106;-89
2023/03/07 09:01:50;;;;;;;20.97;11.00;;;5.10;99.90;;;;;;1889401;75;21224;-90
2023/03/07 09:04:42;;;;;;;18.70;11.33;;;5.20;99.90;;;;;;1874890;75;21067;-90
2023/03/07 09:07:34;;;;;;;18.65;10.78;;;5.30;99.90;;;;;;1889598;75;21126;-89
2023/03/07 09:10:27;;;;;;;21.55;12.15;;;5.40;99.90;;;;;;1895022;74;21141;-90
2023/03/07 09:13:29;;;;;;;19.07;11.48;;;5.40;99.90;;;;;;1904471;74;21102;-92
2023/03/07 09:16:22;;;;;;;15.68;10.32;;;5.50;99.90;;;;;;1910456;74;21098;-90
2023/03/07 09:19:15;;;;;;;20.35;12.40;;;5.50;99.90;;;;;;1912931;75;21118;-91
2023/03/07 09:22:13;;;;;;;19.30;10.90;;;5.60;99.90;;;;;;1913253;75;21101;-90
2023/03/07 09:25:06;;;;;;;20.02;10.53;;;5.60;99.90;;;;;;1861086;76;21070;-91
2023/03/07 09:27:58;;;;;;;20.40;12.05;;;5.70;99.90;;;;;;1853814;77;21076;-90
2023/03/07 09:30:51;;;;;;;17.98;10.05;;;5.90;99.90;;;;;;1873098;76;21147;-90
2023/03/07 09:33:43;;;;;;;17.20;10.58;;;6.10;99.90;;;;;;1946881;73;21040;-92
2023/03/07 09:36:36;;;;;;;20.92;11.53;;;6.20;99.90;;;;;;1932009;74;21070;-91
2023/03/07 09:39:28;;;;;;;16.67;9.55;;;6.30;99.90;;;;;;1913292;75;21101;-90
2023/03/07 09:42:26;;;;;;;13.75;9.25;;;6.40;99.90;;;;;;1912949;75;21094;-89
2023/03/07 09:45:31;;;;;;;15.45;9.55;;;6.40;99.90;;;;;;1913554;75;21123;-89
2023/03/07 09:48:54;;;;;;;17.30;9.85;;;6.50;99.90;;;;;;1913214;75;21129;-91
2023/03/07 09:51:52;;;;;;;12.98;8.33;;;6.60;99.90;;;;;;1935259;74;21094;-90
2023/03/07 09:54:52;;;;;;;13.43;8.07;;;6.70;99.90;;;;;;1913348;75;21059;-91
2023/03/07 09:57:49;;;;;;;16.82;9.18;;;6.70;99.90;;;;;;1913174;75;21063;-90
2023/03/07 10:00:44;;;;;;;14.47;7.42;;;6.90;99.90;;;;;;1873663;76;21111;-90
2023/03/07 10:03:39;;;;;;;13.85;8.03;;;7.10;99.90;;;;;;1913245;74;21102;-90
2023/03/07 10:06:36;;;;;;;13.05;8.03;;;7.20;99.90;;;;;;1916704;74;21216;-90
2023/03/07 10:09:30;;;;;;;16.62;9.18;;;7.20;99.90;;;;;;1925538;74;21114;-91
2023/03/07 10:12:47;;;;;;;12.05;7.05;;;7.20;99.90;;;;;;1913224;75;21043;-90
2023/03/07 10:15:45;;;;;;;11.73;8.10;;;7.20;99.90;;;;;;1931214;74;21178;-90
2023/03/07 10:18:43;;;;;;;13.78;9.18;;;7.10;99.90;;;;;;1875483;76;21106;-89
2023/03/07 10:25:01;;;;;;;16.20;8.85;;;7.10;99.90;;;;;;1971532;72;22162;-89
2023/03/07 10:27:55;;;;;;;17.23;9.30;;;7.20;99.90;;;;;;1907224;75;21140;-90
2023/03/07 10:30:49;;;;;;;13.30;8.53;;;7.10;99.90;;;;;;1917556;75;21109;-90
2023/03/07 10:33:43;;;;;;;14.18;8.35;;;7.30;99.90;;;;;;1917619;75;21106;-90
2023/03/07 10:36:38;;;;;;;15.05;9.18;;;7.50;99.90;;;;;;1933923;73;21112;-91
2023/03/07 10:42:23;;;;;;;15.00;8.98;;;7.70;99.90;;;;;;1969485;72;22246;-90
2023/03/07 10:45:15;;;;;;;14.33;7.78;;;7.70;99.90;;;;;;1917235;75;21212;-91
2023/03/07 10:48:11;;;;;;;14.03;9.38;;;7.80;99.90;;;;;;1917254;75;21062;-90
2023/03/07 10:51:08;;;;;;;17.52;9.10;;;7.70;99.90;;;;;;1917255;75;21133;-90
2023/03/07 10:57:22;;;;;;;16.57;8.90;;;7.70;99.90;;;;;;1978077;71;22225;-89
2023/03/07 11:00:21;;;;;;;14.68;8.48;;;8.00;99.90;;;;;;1952434;73;21039;-89
2023/03/07 11:07:01;;;;;;;15.32;8.93;;;8.50;99.90;;;;;;2045436;69;22270;-90
2023/03/07 11:09:55;;;;;;;14.53;8.15;;;8.50;99.90;;;;;;1985074;72;21184;-90
2023/03/07 11:12:47;;;;;;;19.02;8.75;;;8.60;99.90;;;;;;1984793;72;21182;-89
2023/03/07 11:15:38;;;;;;;14.23;8.50;;;8.60;99.90;;;;;;1951060;73;21063;-89
2023/03/07 11:18:33;;;;;;;16.00;7.47;;;8.80;99.90;;;;;;1949676;73;21142;-89
2023/03/07 11:21:31;;;;;;;15.00;8.88;;;8.90;99.90;;;;;;1982116;71;21127;-90
2023/03/07 11:24:27;;;;;;;16.17;8.60;;;9.00;99.90;;;;;;1985233;72;21094;-90
2023/03/07 11:27:27;;;;;;;14.43;7.83;;;9.20;99.90;;;;;;1985008;72;21122;-90
2023/03/07 11:30:25;;;;;;;17.52;8.18;;;9.30;99.90;;;;;;1984826;72;21038;-89
2023/03/07 11:33:20;;;;;;;12.75;7.95;;;9.50;99.90;;;;;;1984830;72;21081;-89
2023/03/07 11:36:15;;;;;;;12.75;7.53;;;9.50;99.90;;;;;;1962114;72;21076;-90
2023/03/07 11:39:17;;;;;;;11.80;7.65;;;9.60;99.90;;;;;;1985790;72;21088;-89
2023/03/07 11:42:12;;;;;;;13.68;8.03;;;9.50;99.90;;;;;;1985481;72;21034;-88
2023/03/07 11:45:21;;;;;;;;;;;;;;;;;;;;;
2023/03/07 11:48:19;;;;;;;11.48;6.72;;;9.50;99.90;;;;;;1985218;72;21513;-90
2023/03/07 11:51:17;;;;;;;14.03;8.75;;;9.60;99.90;;;;;;1949804;73;21180;-90
2023/03/07 11:54:26;;;;;;;14.93;8.93;;;9.60;99.90;;;;;;1962899;72;21108;-89
2023/03/07 11:57:32;;;;;;;15.25;9.13;;;9.70;99.90;;;;;;1984725;72;21046;-90
2023/03/07 12:00:31;;;;;;;13.72;8.08;;;9.80;99.90;;;;;;1985121;72;21121;-89
2023/03/07 12:03:47;;;;;;;11.55;7.40;;;10.00;99.90;;;;;;1984622;72;21042;-90
2023/03/07 12:06:42;;;;;;;13.60;8.43;;;10.00;99.90;;;;;;1984848;72;21169;-88
2023/03/07 12:09:51;;;;;;;12.90;8.38;;;10.20;99.90;;;;;;1985100;72;21105;-89
2023/03/07 12:12:45;;;;;;;;;;;10.30;99.90;;;;;;1987937;72;21066;-90
2023/03/07 12:15:42;;;;;;;12.18;6.92;;;10.60;99.90;;;;;;1967458;72;20206;-89
2023/03/07 12:18:52;;;;;;;10.55;7.03;;;10.80;99.90;;;;;;1984270;72;21113;-90
2023/03/07 12:21:55;;;;;;;13.90;8.65;;;10.90;99.90;;;;;;1984139;72;21065;-89
2023/03/07 12:24:49;;;;;;;13.00;8.28;;;11.20;99.90;;;;;;1984436;72;21102;-90
2023/03/07 12:30:38;;;;;;;14.93;7.97;;;11.30;99.90;;;;;;1953617;72;22218;-90
2023/03/07 12:33:55;;;;;;;14.55;7.67;;;11.20;99.90;;;;;;1950389;73;21077;-90
2023/03/07 12:36:50;;;;;;;17.37;8.15;;;11.20;99.90;;;;;;1938444;73;21188;-90
2023/03/07 12:39:47;;;;;;;14.58;7.62;;;11.40;99.90;;;;;;1958660;73;21066;-90
2023/03/07 12:42:52;;;;;;;12.15;7.65;;;11.50;99.90;;;;;;1951671;73;21039;-90
2023/03/07 12:45:54;;;;;;;13.13;7.83;;;11.70;99.90;;;;;;1952550;73;21236;-90
2023/03/07 12:48:54;;;;;;;11.78;7.37;;;11.90;99.90;;;;;;1953429;73;21094;-90
2023/03/07 12:52:00;;;;;;;12.47;6.42;;;11.90;99.90;;;;;;1955886;73;21171;-89
2023/03/07 12:54:55;;;;;;;13.95;6.47;;;11.90;99.90;;;;;;1949159;73;21533;-90
2023/03/07 12:57:54;;;;;;;10.43;6.62;;;11.90;99.90;;;;;;1878233;76;21511;-90
2023/03/07 13:00:53;;;;;;;14.87;5.17;;;12.00;99.90;;;;;;1935757;74;21085;-91
2023/03/07 13:04:00;;;;;;;9.58;6.30;;;12.20;99.90;;;;;;1952349;73;21195;-91
2023/03/07 13:06:53;;;;;;;6.12;3.20;;;12.60;99.90;;;;;;1953037;73;21203;-91
2023/03/07 13:09:47;;;;;;;3.52;2.10;;;12.80;99.40;;;;;;1953744;73;21090;-90
2023/03/07 13:18:45;;;;;;;8.68;5.42;;;13.20;99.70;;;;;;1954879;72;22263;-89
2023/03/07 13:21:37;;;;;;;9.83;4.40;;;13.20;99.40;;;;;;1895484;74;21177;-90
2023/03/07 13:24:37;;;;;;;11.05;5.47;;;13.00;99.10;;;;;;1912968;75;21296;-91
2023/03/07 13:27:50;;;;;;;9.83;5.95;;;12.90;99.40;;;;;;1906458;75;21179;-89
2023/03/07 13:31:10;;;;;;;9.53;5.60;;;12.50;99.90;;;;;;1884334;75;21156;-90
2023/03/07 13:34:50;;;;;;;11.30;5.50;;;12.30;99.90;;;;;;1906199;75;21094;-90
2023/03/07 13:37:56;;;;;;;12.98;5.00;;;12.10;99.90;;;;;;1884121;76;21063;-89
2023/03/07 13:40:59;;;;;;;8.95;4.65;;;12.00;99.90;;;;;;1889988;75;21156;-89
2023/03/07 13:47:44;;;;;;;10.13;5.10;;;12.30;99.90;;;;;;1884349;76;21127;-88
2023/03/07 13:50:43;;;;;;;9.90;5.37;;;12.30;99.90;;;;;;1905611;75;21414;-89
2023/03/07 13:53:39;;;;;;;6.83;4.67;;;12.20;99.90;;;;;;1887421;75;21566;-90
2023/03/07 13:56:44;;;;;;;11.78;6.60;;;11.90;99.90;;;;;;1896195;75;21687;-90
2023/03/07 13:59:50;;;;;;;10.75;7.08;;;11.70;99.90;;;;;;1885033;76;21275;-90
2023/03/07 14:02:42;;;;;;;12.43;6.95;;;11.30;99.90;;;;;;1884842;76;21167;-90
2023/03/07 14:05:38;;;;;;;11.80;7.03;;;11.00;99.90;;;;;;1895849;75;21176;-89
2023/03/07 14:08:35;;;;;;;10.63;7.53;;;10.90;99.90;;;;;;1909761;75;21106;-90
2023/03/07 14:11:40;;;;;;;12.23;6.62;;;10.70;99.90;;;;;;1884517;75;21123;-91
2023/03/07 14:14:51;;;;;;;10.90;6.45;;;10.60;99.90;;;;;;1883829;76;21145;-91
2023/03/07 14:17:53;;;;;;;15.00;8.80;;;10.60;99.90;;;;;;1887284;74;21207;-91
2023/03/07 14:20:52;;;;;;;12.73;7.42;;;10.60;99.90;;;;;;1838592;77;21116;-90
2023/03/07 14:24:14;;;;;;;15.53;7.58;;;10.60;99.90;;;;;;1916124;74;21174;-89
2023/03/07 14:27:12;;;;;;;13.72;8.05;;;10.70;99.90;;;;;;1917961;74;21202;-89
2023/03/07 14:30:15;;;;;;;20.20;9.00;;;10.70;99.90;;;;;;1919118;74;21161;-89
2023/03/07 14:33:09;;;;;;;12.03;7.85;;;10.70;99.90;;;;;;1899845;75;21089;-89
2023/03/07 14:36:01;;;;;;;16.87;8.65;;;10.60;99.90;;;;;;1899500;74;21179;-90
2023/03/07 14:42:15;;;;;;;14.28;7.45;;;10.40;99.90;;;;;;1888832;74;21151;-90
2023/03/07 14:45:29;;;;;;;13.10;7.17;;;10.40;99.90;;;;;;1899823;75;21174;-89
2023/03/07 14:48:37;;;;;;;14.50;7.70;;;10.40;99.90;;;;;;1899785;75;21117;-91
2023/03/07 14:51:32;;;;;;;10.32;7.00;;;10.30;99.90;;;;;;1918677;74;21083;-89
2023/03/07 14:54:28;;;;;;;10.10;6.30;;;10.40;99.90;;;;;;1914298;74;21140;-90
2023/03/07 14:57:33;;;;;;;8.73;6.00;;;10.40;99.90;;;;;;1932578;74;21105;-89
2023/03/07 15:00:56;;;;;;;7.65;5.28;;;10.50;99.90;;;;;;1900581;74;21070;-88
2023/03/07 15:04:02;;;;;;;9.03;4.78;;;10.50;99.90;;;;;;1899363;74;21478;-89
2023/03/07 15:06:57;;;;;;;6.60;4.92;;;10.60;99.90;;;;;;1900495;75;21182;-89
2023/03/07 15:09:49;;;;;;;7.67;4.33;;;10.60;99.90;;;;;;1900050;75;21050;-90
2023/03/07 15:12:41;;;;;;;8.65;5.03;;;10.50;99.90;;;;;;1920993;74;21164;-90
2023/03/07 15:15:36;;;;;;;8.93;6.05;;;10.50;99.90;;;;;;1933023;74;21109;-88
2023/03/07 15:21:25;;;;;;;9.13;6.70;;;10.10;99.90;;;;;;1944368;72;22259;-90
2023/03/07 15:24:27;;;;;;;11.22;7.05;;;9.90;99.90;;;;;;1917131;75;21097;-90
2023/03/07 15:27:26;;;;;;;11.22;6.03;;;9.80;99.90;;;;;;1940965;73;21127;-89
2023/03/07 15:30:24;;;;;;;13.10;7.00;;;9.70;99.90;;;;;;1933141;73;21115;-89
2023/03/07 15:33:22;;;;;;;12.13;8.28;;;9.70;99.90;;;;;;1917175;75;21188;-89
2023/03/07 15:36:22;;;;;;;13.03;8.25;;;9.50;99.90;;;;;;1928333;73;21054;-89
2023/03/07 15:39:15;;;;;;;;;;;9.30;99.90;;;;;;1954754;73;21120;-91
2023/03/07 15:42:08;;;;;;;15.90;8.85;;;9.10;99.90;;;;;;1927156;73;20173;-91
2023/03/07 15:45:02;;;;;;;16.10;9.95;;;8.90;99.90;;;;;;1917765;75;21118;-89
2023/03/07 15:47:54;;;;;;;16.37;8.98;;;8.70;99.90;;;;;;1917485;75;21088;-89